createdAt,value
2019-05-10T00:00:19.929Z,18.23
2019-05-10T00:03:06.767Z,18.53
2019-05-10T00:05:53.359Z,18.23
2019-05-10T00:08:39.608Z,17.73
2019-05-10T00:11:33.463Z,19.60
2019-05-10T00:14:26.690Z,19.43
2019-05-10T00:17:01.562Z,19.77
2019-05-10T00:19:31.367Z,19.33
2019-05-10T00:22:00.202Z,19.63
2019-05-10T00:24:28.832Z,19.53
2019-05-10T00:26:57.528Z,19.37
2019-05-10T00:29:26.174Z,20.30
2019-05-10T00:31:54.928Z,19.33
2019-05-10T00:34:23.540Z,19.53
2019-05-10T00:36:52.341Z,20.13
2019-05-10T00:39:21.001Z,20.07
2019-05-10T00:41:49.799Z,19.87
2019-05-10T00:44:18.621Z,19.93
2019-05-10T00:46:47.395Z,19.93
2019-05-10T00:49:16.061Z,20.73
2019-05-10T00:51:44.824Z,19.57
2019-05-10T00:54:13.325Z,18.57
2019-05-10T00:56:42.117Z,18.90
2019-05-10T00:59:10.846Z,18.60
2019-05-10T01:01:39.654Z,19.37
2019-05-10T01:04:08.223Z,19.60
2019-05-10T01:06:36.820Z,18.80
2019-05-10T01:09:07.282Z,19.07
2019-05-10T01:11:35.915Z,19.27
2019-05-10T01:14:04.642Z,20.17
2019-05-10T01:16:33.667Z,20.67
2019-05-10T01:19:02.183Z,20.90
2019-05-10T01:21:32.047Z,18.93
2019-05-10T01:24:00.762Z,18.70
2019-05-10T01:26:29.396Z,18.17
2019-05-10T01:28:58.193Z,19.43
2019-05-10T01:31:28.118Z,18.57
2019-05-10T01:33:56.790Z,19.00
2019-05-10T01:36:25.591Z,19.27
2019-05-10T01:38:54.260Z,19.23
2019-05-10T01:41:24.083Z,20.37
2019-05-10T01:43:52.655Z,21.87
2019-05-10T01:46:21.281Z,21.00
2019-05-10T01:48:49.927Z,22.30
2019-05-10T01:51:18.334Z,21.70
2019-05-10T01:53:46.837Z,22.70
2019-05-10T01:56:15.351Z,22.00
2019-05-10T01:58:44.091Z,20.73
2019-05-10T02:01:12.597Z,21.80
2019-05-10T02:03:41.110Z,21.47
2019-05-10T02:06:09.811Z,20.30
2019-05-10T02:08:39.416Z,19.97
2019-05-10T02:11:08.074Z,19.37
2019-05-10T02:13:36.938Z,19.50
2019-05-10T02:16:05.514Z,19.87
2019-05-10T02:18:34.474Z,18.67
2019-05-10T02:21:03.220Z,20.23
2019-05-10T02:23:32.832Z,20.23
2019-05-10T02:26:09.601Z,19.57
2019-05-10T02:28:31.626Z,20.93
2019-05-10T02:31:00.278Z,20.37
2019-05-10T02:33:29.103Z,20.13
2019-05-10T02:35:57.818Z,21.17
2019-05-10T02:38:26.525Z,20.53
2019-05-10T02:40:55.049Z,20.03
2019-05-10T02:43:23.742Z,20.23
2019-05-10T02:45:52.930Z,19.50
2019-05-10T02:48:21.579Z,20.50
2019-05-10T02:50:50.253Z,21.40
2019-05-10T02:53:19.027Z,19.17
2019-05-10T02:55:49.623Z,20.60
2019-05-10T02:58:18.172Z,19.03
2019-05-10T03:00:48.489Z,19.60
2019-05-10T03:03:17.852Z,20.43
2019-05-10T03:05:49.077Z,19.13
2019-05-10T03:08:17.712Z,19.67
2019-05-10T03:10:56.373Z,19.43
2019-05-10T03:13:29.512Z,18.90
2019-05-10T03:16:01.559Z,19.03
2019-05-10T03:18:31.579Z,20.23
2019-05-10T03:21:06.520Z,18.53
2019-05-10T03:23:36.199Z,19.23
2019-05-10T03:26:04.645Z,18.80
2019-05-10T03:28:33.415Z,20.53
2019-05-10T03:31:02.484Z,19.47
2019-05-10T03:33:31.356Z,19.53
2019-05-10T03:36:00.361Z,19.73
2019-05-10T03:38:29.460Z,20.50
2019-05-10T03:40:58.271Z,20.87
2019-05-10T03:43:27.058Z,19.77
2019-05-10T03:45:55.779Z,21.03
2019-05-10T03:48:24.588Z,22.77
2019-05-10T03:50:53.288Z,23.17
2019-05-10T03:53:22.415Z,23.00
2019-05-10T03:55:53.095Z,25.27
2019-05-10T03:58:21.937Z,25.07
2019-05-10T04:00:51.602Z,25.37
2019-05-10T04:03:20.430Z,25.27
2019-05-10T04:05:49.372Z,24.80
2019-05-10T04:08:18.115Z,25.43
2019-05-10T04:10:47.821Z,25.53
2019-05-10T04:13:16.455Z,24.63
2019-05-10T04:15:45.681Z,24.13
2019-05-10T04:18:14.190Z,24.83
2019-05-10T04:20:42.951Z,24.30
2019-05-10T04:23:11.363Z,24.80
2019-05-10T04:25:41.127Z,25.33
2019-05-10T04:28:10.678Z,24.93
2019-05-10T04:30:39.292Z,24.30
2019-05-10T04:33:07.995Z,23.43
2019-05-10T04:35:36.709Z,24.07
2019-05-10T04:38:05.365Z,24.50
2019-05-10T04:40:34.057Z,23.57
2019-05-10T04:43:02.925Z,22.97
2019-05-10T04:45:31.706Z,24.30
2019-05-10T04:48:01.491Z,25.27
2019-05-10T04:50:30.232Z,24.57
2019-05-10T04:52:58.971Z,28.33
2019-05-10T04:55:27.668Z,28.10
2019-05-10T04:57:56.275Z,28.07
2019-05-10T05:00:24.725Z,29.73
2019-05-10T05:02:53.270Z,29.43
2019-05-10T05:05:21.895Z,30.30
2019-05-10T05:07:50.348Z,29.87
2019-05-10T05:10:18.933Z,32.77
2019-05-10T05:12:47.540Z,32.73
2019-05-10T05:15:16.049Z,32.93
2019-05-10T05:17:44.715Z,32.03
2019-05-10T05:20:14.000Z,30.97
2019-05-10T05:22:42.937Z,30.17
2019-05-10T05:25:11.768Z,30.93
2019-05-10T05:27:41.315Z,29.70
2019-05-10T05:30:09.975Z,29.90
2019-05-10T05:32:44.449Z,31.77
2019-05-10T05:35:09.530Z,30.73
2019-05-10T05:37:38.438Z,30.93
2019-05-10T05:40:07.407Z,33.63
2019-05-10T05:42:36.090Z,35.63
2019-05-10T05:45:05.334Z,34.97
2019-05-10T05:47:37.662Z,32.37
2019-05-10T05:50:05.124Z,29.20
2019-05-10T05:52:33.815Z,30.27
2019-05-10T05:55:02.411Z,27.23
2019-05-10T05:57:36.191Z,30.50
2019-05-10T06:00:06.715Z,31.00
2019-05-10T06:02:44.405Z,28.90
2019-05-10T06:05:06.144Z,26.93
2019-05-10T06:07:37.948Z,27.37
2019-05-10T06:10:10.271Z,29.37
2019-05-10T06:12:36.006Z,27.83
2019-05-10T06:15:04.683Z,28.97
2019-05-10T06:17:33.125Z,26.83
2019-05-10T06:20:06.114Z,26.23
2019-05-10T06:22:38.286Z,28.60
2019-05-10T06:25:04.290Z,27.73
2019-05-10T06:27:35.243Z,27.43
2019-05-10T06:30:03.579Z,28.47
2019-05-10T06:32:32.239Z,29.00
2019-05-10T06:35:01.087Z,28.53
2019-05-10T06:37:31.474Z,28.13
2019-05-10T06:40:00.194Z,28.57
2019-05-10T06:42:34.686Z,28.47
2019-05-10T06:45:04.940Z,27.80
2019-05-10T06:47:30.995Z,27.70
2019-05-10T06:50:00.458Z,28.80
2019-05-10T06:52:29.815Z,27.80
2019-05-10T06:54:58.873Z,27.47
2019-05-10T06:57:27.477Z,25.43
2019-05-10T06:59:57.065Z,25.70
2019-05-10T07:02:32.236Z,26.00
2019-05-10T07:04:56.999Z,25.07
2019-05-10T07:07:42.727Z,26.70
2019-05-10T07:10:12.280Z,25.53
2019-05-10T07:12:29.992Z,25.83
2019-05-10T07:14:57.766Z,27.20
2019-05-10T07:17:27.894Z,26.07
2019-05-10T07:19:56.482Z,26.70
2019-05-10T07:22:26.802Z,27.40
2019-05-10T07:24:57.213Z,28.67
2019-05-10T07:27:26.201Z,27.90
2019-05-10T07:29:55.964Z,29.50
2019-05-10T07:32:24.724Z,27.87
2019-05-10T07:34:59.138Z,29.47
2019-05-10T07:37:24.147Z,27.83
2019-05-10T07:39:52.600Z,27.50
2019-05-10T07:42:21.332Z,27.80
2019-05-10T07:44:50.102Z,25.50
2019-05-10T07:47:23.758Z,26.00
2019-05-10T07:49:48.917Z,24.87
2019-05-10T07:52:17.584Z,25.23
2019-05-10T07:54:47.782Z,23.37
2019-05-10T07:57:18.537Z,25.10
2019-05-10T07:59:50.648Z,23.73
2019-05-10T08:02:18.594Z,20.40
2019-05-10T08:04:50.640Z,23.27
2019-05-10T08:07:18.558Z,20.50
2019-05-10T08:09:48.759Z,20.07
2019-05-10T08:12:19.528Z,20.47
2019-05-10T08:14:50.106Z,18.67
2019-05-10T08:17:19.241Z,17.87
2019-05-10T08:19:48.013Z,18.30
2019-05-10T08:22:16.707Z,18.00
2019-05-10T08:24:52.728Z,15.43
2019-05-10T08:27:15.986Z,14.93
2019-05-10T08:29:45.052Z,12.73
2019-05-10T08:32:13.709Z,14.77
2019-05-10T08:34:51.733Z,16.17
2019-05-10T08:37:53.655Z,16.20
2019-05-10T08:40:36.952Z,16.00
2019-05-10T08:43:08.478Z,15.00
2019-05-10T08:45:38.943Z,13.53
2019-05-10T08:48:07.063Z,15.53
2019-05-10T08:50:49.320Z,13.23
2019-05-10T08:53:10.867Z,12.13
2019-05-10T08:55:36.828Z,13.57
2019-05-10T08:58:05.558Z,13.07
2019-05-10T09:00:45.580Z,12.77
2019-05-10T09:03:09.264Z,12.27
2019-05-10T09:05:35.459Z,12.70
2019-05-10T09:08:05.868Z,12.97
2019-05-10T09:10:34.684Z,12.07
2019-05-10T09:13:03.589Z,10.83
2019-05-10T09:15:33.060Z,10.37
2019-05-10T09:18:04.413Z,9.70
2019-05-10T09:20:32.294Z,10.17
2019-05-10T09:23:02.467Z,10.83
2019-05-10T09:25:33.766Z,11.00
2019-05-10T09:28:10.604Z,10.87
2019-05-10T09:30:35.633Z,10.07
2019-05-10T09:33:11.393Z,8.10
2019-05-10T09:35:39.124Z,10.10
2019-05-10T09:38:07.658Z,10.87
2019-05-10T09:40:42.610Z,10.57
2019-05-10T09:43:09.627Z,10.97
2019-05-10T09:45:37.338Z,11.37
2019-05-10T09:48:17.829Z,12.90
2019-05-10T09:50:47.365Z,13.10
2019-05-10T09:53:22.520Z,11.57
2019-05-10T09:55:55.366Z,11.40
2019-05-10T09:58:21.813Z,12.37
2019-05-10T10:00:48.506Z,12.13
2019-05-10T10:03:17.205Z,12.43
2019-05-10T10:05:48.316Z,11.93
2019-05-10T10:08:17.645Z,12.60
2019-05-10T10:10:47.586Z,12.13
2019-05-10T10:13:35.944Z,11.73
2019-05-10T10:15:52.146Z,11.27
2019-05-10T10:18:21.389Z,11.77
2019-05-10T10:20:48.222Z,10.63
2019-05-10T10:23:17.414Z,12.07
2019-05-10T10:25:48.233Z,10.57
2019-05-10T10:28:22.708Z,9.57
2019-05-10T10:31:02.455Z,9.20
2019-05-10T10:33:29.045Z,8.63
2019-05-10T10:36:04.962Z,8.23
2019-05-10T10:38:30.962Z,8.73
2019-05-10T10:40:57.791Z,8.23
2019-05-10T10:43:27.373Z,8.67
2019-05-10T10:45:57.462Z,7.57
2019-05-10T10:48:28.414Z,7.67
2019-05-10T10:50:58.661Z,7.60
2019-05-10T10:53:28.213Z,7.63
2019-05-10T10:56:03.408Z,6.90
2019-05-10T10:58:27.703Z,7.37
2019-05-10T11:00:57.483Z,6.70
2019-05-10T11:03:30.179Z,6.93
2019-05-10T11:05:56.851Z,7.23
2019-05-10T11:08:25.484Z,7.17
2019-05-10T11:10:54.165Z,7.13
2019-05-10T11:13:40.584Z,6.80
2019-05-10T11:15:53.090Z,7.53
2019-05-10T11:18:21.794Z,6.30
2019-05-10T11:20:53.862Z,7.47
2019-05-10T11:23:24.492Z,7.17
2019-05-10T11:25:56.230Z,7.80
2019-05-10T11:28:21.712Z,7.87
2019-05-10T11:30:51.180Z,6.77
2019-05-10T11:33:27.242Z,7.43
2019-05-10T11:35:51.548Z,6.60
2019-05-10T11:38:21.448Z,7.27
2019-05-10T11:40:50.400Z,6.90
2019-05-10T11:43:23.902Z,7.33
2019-05-10T11:45:51.466Z,6.80
2019-05-10T11:48:21.574Z,6.63
2019-05-10T11:50:51.369Z,6.30
2019-05-10T11:53:20.956Z,6.97
2019-05-10T11:55:52.802Z,6.67
2019-05-10T11:58:23.805Z,6.20
2019-05-10T12:00:59.348Z,5.67
2019-05-10T12:03:24.216Z,5.37
2019-05-10T12:06:04.349Z,6.50
2019-05-10T12:08:23.439Z,6.40
2019-05-10T12:10:58.256Z,6.13
2019-05-10T12:13:24.928Z,6.57
2019-05-10T12:15:53.053Z,6.53
2019-05-10T12:18:26.927Z,6.50
2019-05-10T12:21:08.595Z,5.33
2019-05-10T12:23:30.230Z,5.93
2019-05-10T12:26:58.896Z,5.80
2019-05-10T12:28:28.534Z,6.40
2019-05-10T12:30:53.553Z,5.90
2019-05-10T12:33:27.657Z,6.93
2019-05-10T12:35:52.497Z,6.57
2019-05-10T12:38:23.479Z,5.97
2019-05-10T12:40:51.594Z,6.30
2019-05-10T12:43:21.122Z,6.80
2019-05-10T12:45:51.785Z,7.13
2019-05-10T12:48:23.201Z,6.87
2019-05-10T12:50:54.417Z,6.07
2019-05-10T12:53:22.465Z,7.37
2019-05-10T12:55:51.137Z,7.03
2019-05-10T12:58:19.759Z,6.03
2019-05-10T13:00:52.756Z,6.20
2019-05-10T13:03:19.657Z,5.80
2019-05-10T13:05:53.143Z,6.10
2019-05-10T13:08:19.129Z,5.40
2019-05-10T13:10:49.950Z,5.57
2019-05-10T13:13:23.705Z,6.40
2019-05-10T13:15:48.498Z,5.87
2019-05-10T13:18:17.179Z,5.93
2019-05-10T13:20:45.900Z,5.67
2019-05-10T13:23:15.984Z,6.80
2019-05-10T13:25:45.134Z,5.90
2019-05-10T13:28:13.946Z,5.20
2019-05-10T13:30:42.507Z,4.90
2019-05-10T13:33:11.220Z,5.30
2019-05-10T13:35:39.884Z,5.87
2019-05-10T13:38:08.860Z,5.00
2019-05-10T13:40:39.175Z,5.40
2019-05-10T13:43:08.175Z,5.33
2019-05-10T13:45:37.555Z,5.40
2019-05-10T13:48:07.392Z,4.80
2019-05-10T13:50:35.912Z,5.63
2019-05-10T13:53:04.632Z,4.80
2019-05-10T13:55:33.433Z,4.73
2019-05-10T13:58:02.078Z,4.57
2019-05-10T14:00:34.186Z,5.10
2019-05-10T14:03:04.935Z,4.83
2019-05-10T14:05:32.083Z,4.33
2019-05-10T14:08:00.559Z,4.67
2019-05-10T14:10:29.241Z,4.23
2019-05-10T14:13:02.412Z,5.27
2019-05-10T14:15:30.338Z,5.10
2019-05-10T14:17:58.940Z,5.27
2019-05-10T14:20:27.875Z,4.63
2019-05-10T14:22:58.739Z,4.70
2019-05-10T14:25:29.560Z,4.83
2019-05-10T14:27:57.396Z,4.67
2019-05-10T14:30:27.059Z,5.50
2019-05-10T14:32:56.787Z,4.80
2019-05-10T14:35:25.257Z,4.70
2019-05-10T14:37:54.619Z,5.57
2019-05-10T14:40:30.843Z,5.13
2019-05-10T14:42:53.704Z,5.13
2019-05-10T14:45:22.391Z,5.40
2019-05-10T14:47:51.040Z,4.90
2019-05-10T14:50:26.301Z,4.77
2019-05-10T14:52:50.537Z,5.23
2019-05-10T14:55:19.144Z,4.97
2019-05-10T14:57:47.727Z,4.80
2019-05-10T15:00:16.405Z,4.50
2019-05-10T15:02:44.931Z,4.30
2019-05-10T15:05:16.038Z,4.57
2019-05-10T15:07:44.016Z,4.30
2019-05-10T15:10:12.725Z,3.80
2019-05-10T15:12:41.764Z,4.10
2019-05-10T15:15:10.607Z,4.20
2019-05-10T15:17:39.280Z,4.33
2019-05-10T15:20:08.239Z,4.37
2019-05-10T15:22:37.965Z,4.50
2019-05-10T15:25:07.004Z,5.33
2019-05-10T15:27:35.612Z,4.30
2019-05-10T15:30:08.157Z,4.10
2019-05-10T15:32:36.774Z,4.37
2019-05-10T15:35:07.991Z,3.40
2019-05-10T15:37:40.737Z,3.67
2019-05-10T15:40:08.130Z,4.00
2019-05-10T15:42:38.554Z,4.43
2019-05-10T15:45:11.992Z,4.23
2019-05-10T15:47:49.895Z,3.73
2019-05-10T15:50:09.022Z,3.90
2019-05-10T15:52:39.740Z,3.90
2019-05-10T15:55:08.523Z,4.20
2019-05-10T15:57:37.192Z,4.07
2019-05-10T16:00:06.569Z,4.00
2019-05-10T16:02:35.481Z,4.63
2019-05-10T16:05:22.264Z,4.10
2019-05-10T16:07:35.159Z,4.00
2019-05-10T16:10:04.081Z,4.20
2019-05-10T16:12:37.629Z,4.83
2019-05-10T16:15:44.668Z,3.90
2019-05-10T16:18:13.500Z,3.90
2019-05-10T16:20:41.982Z,3.63
2019-05-10T16:23:11.235Z,4.00
2019-05-10T16:25:47.609Z,3.90
2019-05-10T16:28:10.259Z,4.33
2019-05-10T16:30:38.687Z,3.60
2019-05-10T16:33:09.883Z,4.17
2019-05-10T16:35:39.148Z,3.73
2019-05-10T16:38:07.857Z,4.07
2019-05-10T16:40:38.550Z,3.50
2019-05-10T16:43:13.985Z,3.70
2019-05-10T16:46:30.028Z,4.03
2019-05-10T16:48:58.640Z,3.40
2019-05-10T16:51:27.569Z,3.73
2019-05-10T16:53:56.442Z,3.40
2019-05-10T16:56:25.145Z,3.70
2019-05-10T16:58:55.638Z,3.60
2019-05-10T17:01:25.725Z,4.23
2019-05-10T17:04:00.062Z,4.17
2019-05-10T17:06:25.825Z,3.60
2019-05-10T17:08:54.495Z,3.67
2019-05-10T17:11:23.347Z,3.30
2019-05-10T17:13:55.157Z,3.50
2019-05-10T17:16:22.585Z,3.97
2019-05-10T17:18:55.172Z,3.57
2019-05-10T17:21:21.739Z,3.53
2019-05-10T17:23:50.146Z,3.90
2019-05-10T17:26:18.654Z,4.37
2019-05-10T17:28:48.417Z,4.00
2019-05-10T17:31:17.210Z,4.17
2019-05-10T17:33:45.768Z,4.17
2019-05-10T17:36:19.899Z,4.30
2019-05-10T17:38:47.515Z,3.90
2019-05-10T17:41:19.514Z,3.87
2019-05-10T17:43:46.440Z,4.63
2019-05-10T17:46:18.761Z,5.13
2019-05-10T17:48:47.282Z,4.80
2019-05-10T17:51:15.854Z,4.77
2019-05-10T17:53:44.636Z,4.50
2019-05-10T17:56:13.530Z,4.80
2019-05-10T17:58:42.207Z,4.70
2019-05-10T18:01:10.819Z,4.23
2019-05-10T18:03:39.421Z,4.50
2019-05-10T18:06:22.678Z,4.83
2019-05-10T18:08:41.838Z,4.77
2019-05-10T18:11:10.809Z,4.67
2019-05-10T18:13:40.837Z,4.60
2019-05-10T18:16:10.992Z,4.80
2019-05-10T18:18:46.448Z,4.67
2019-05-10T18:21:16.130Z,5.00
2019-05-10T18:23:40.885Z,5.00
2019-05-10T18:26:09.519Z,5.83
2019-05-10T18:28:38.041Z,6.40
2019-05-10T18:31:06.707Z,5.60
2019-05-10T18:33:35.294Z,5.10
2019-05-10T18:36:03.828Z,4.83
2019-05-10T18:38:37.056Z,4.83
2019-05-10T18:41:05.449Z,5.27
2019-05-10T18:43:35.365Z,7.50
2019-05-10T18:46:04.965Z,4.80
2019-05-10T18:48:34.459Z,5.27
2019-05-10T18:51:03.107Z,5.20
2019-05-10T18:53:31.827Z,5.33
2019-05-10T18:56:00.461Z,5.10
2019-05-10T18:58:31.508Z,5.70
2019-05-10T19:01:00.601Z,5.17
2019-05-10T19:03:33.796Z,6.00
2019-05-10T19:06:03.934Z,5.27
2019-05-10T19:08:30.997Z,4.60
2019-05-10T19:10:59.844Z,5.37
2019-05-10T19:13:32.439Z,5.00
2019-05-10T19:15:59.077Z,5.70
2019-05-10T19:18:27.667Z,5.90
2019-05-10T19:20:56.293Z,5.80
2019-05-10T19:23:24.988Z,5.53
2019-05-10T19:25:54.015Z,6.23
2019-05-10T19:28:26.807Z,6.03
2019-05-10T19:30:58.695Z,5.50
2019-05-10T19:33:29.533Z,5.40
2019-05-10T19:35:54.425Z,5.53
2019-05-10T19:38:23.038Z,6.17
2019-05-10T19:40:51.652Z,6.20
2019-05-10T19:43:22.250Z,6.37
2019-05-10T19:45:57.633Z,6.43
2019-05-10T19:48:22.047Z,6.20
2019-05-10T19:50:50.510Z,6.13
2019-05-10T19:53:19.082Z,6.30
2019-05-10T19:55:51.465Z,7.60
2019-05-10T19:58:18.093Z,7.37
2019-05-10T20:00:46.936Z,6.67
2019-05-10T20:03:15.630Z,6.70
2019-05-10T20:05:44.287Z,7.30
2019-05-10T20:08:13.087Z,8.57
2019-05-10T20:10:41.640Z,8.17
2019-05-10T20:13:10.435Z,7.73
2019-05-10T20:15:39.317Z,8.27
2019-05-10T20:18:08.152Z,8.03
2019-05-10T20:20:37.085Z,7.83
2019-05-10T20:23:06.015Z,7.93
2019-05-10T20:25:34.432Z,7.93
2019-05-10T20:28:06.260Z,7.03
2019-05-10T20:30:33.645Z,7.83
2019-05-10T20:33:02.424Z,8.50
2019-05-10T20:35:30.870Z,8.07
2019-05-10T20:38:02.389Z,8.33
2019-05-10T20:40:30.185Z,8.73
2019-05-10T20:42:58.844Z,10.13
2019-05-10T20:45:27.429Z,10.43
2019-05-10T20:47:56.015Z,10.93
2019-05-10T20:50:24.516Z,10.37
2019-05-10T20:52:53.078Z,9.53
2019-05-10T20:55:21.923Z,10.43
2019-05-10T20:57:50.588Z,10.10
2019-05-10T21:00:23.425Z,9.03
2019-05-10T21:02:49.606Z,9.33
2019-05-10T21:05:18.253Z,8.63
2019-05-10T21:07:46.869Z,8.73
2019-05-10T21:10:15.731Z,7.23
2019-05-10T21:12:44.373Z,8.87
2019-05-10T21:15:13.259Z,7.53
2019-05-10T21:17:41.734Z,8.20
2019-05-10T21:20:10.758Z,7.93
2019-05-10T21:22:39.423Z,7.50
2019-05-10T21:25:08.587Z,8.23
2019-05-10T21:27:37.284Z,7.63
2019-05-10T21:30:06.334Z,10.70
2019-05-10T21:32:34.882Z,11.27
2019-05-10T21:35:04.099Z,9.53
2019-05-10T21:37:32.611Z,30.97
2019-05-10T21:40:01.236Z,22.27
2019-05-10T21:42:29.846Z,19.07
2019-05-10T21:44:59.340Z,10.90
2019-05-10T21:47:27.769Z,7.00
2019-05-10T21:49:56.461Z,6.53
2019-05-10T21:52:25.052Z,7.40
2019-05-10T21:54:53.696Z,9.00
2019-05-10T21:57:22.425Z,8.10
2019-05-10T21:59:50.946Z,8.43
2019-05-10T22:02:19.612Z,8.43
2019-05-10T22:04:48.360Z,8.13
2019-05-10T22:07:17.248Z,8.00
2019-05-10T22:09:45.930Z,8.43
2019-05-10T22:12:14.621Z,8.83
2019-05-10T22:14:43.091Z,9.40
2019-05-10T22:17:11.607Z,9.23
2019-05-10T22:19:40.222Z,9.00
2019-05-10T22:22:08.939Z,7.50
2019-05-10T22:24:37.447Z,7.77
2019-05-10T22:27:06.084Z,7.10
2019-05-10T22:29:34.888Z,8.03
2019-05-10T22:32:03.560Z,7.57
2019-05-10T22:34:32.270Z,8.23
2019-05-10T22:37:00.835Z,7.53
2019-05-10T22:39:29.518Z,7.57
2019-05-10T22:41:58.153Z,7.80
2019-05-10T22:44:27.871Z,7.43
2019-05-10T22:46:56.585Z,8.20
2019-05-10T22:49:25.250Z,8.07
2019-05-10T22:51:53.828Z,7.47
2019-05-10T22:54:22.342Z,7.70
2019-05-10T22:56:51.034Z,8.03
2019-05-10T22:59:19.573Z,8.80
2019-05-10T23:01:48.358Z,9.27
2019-05-10T23:04:17.089Z,8.87
2019-05-10T23:06:45.881Z,9.10
2019-05-10T23:09:24.226Z,8.47
2019-05-10T23:11:45.881Z,9.10
2019-05-10T23:14:14.453Z,10.23
2019-05-10T23:16:43.064Z,9.57
2019-05-10T23:19:11.771Z,8.70
2019-05-10T23:21:40.387Z,8.93
2019-05-10T23:24:10.904Z,8.37
2019-05-10T23:26:39.503Z,9.77
2019-05-10T23:29:08.032Z,10.60
2019-05-10T23:31:36.661Z,10.77
2019-05-10T23:34:05.416Z,11.03
2019-05-10T23:36:34.033Z,10.83
2019-05-10T23:39:04.122Z,11.00
2019-05-10T23:41:32.686Z,10.33
2019-05-10T23:44:01.297Z,9.80
2019-05-10T23:46:29.964Z,9.80
2019-05-10T23:48:58.606Z,9.30
2019-05-10T23:51:27.058Z,8.30
2019-05-10T23:53:55.790Z,8.30
2019-05-10T23:56:24.351Z,7.20
2019-05-10T23:58:52.873Z,6.70
